createdAt,value
2022-11-27T00:00:54.881Z,2.23
2022-11-27T00:03:57.190Z,2.50
2022-11-27T00:06:58.927Z,2.70
2022-11-27T00:10:00.705Z,2.40
2022-11-27T00:13:02.415Z,2.10
2022-11-27T00:16:05.313Z,2.10
2022-11-27T00:19:07.916Z,2.23
2022-11-27T00:22:09.656Z,2.70
2022-11-27T00:25:11.340Z,2.43
2022-11-27T00:28:13.024Z,2.70
2022-11-27T00:31:28.665Z,2.23
2022-11-27T00:34:30.488Z,2.30
2022-11-27T00:37:32.192Z,2.20
2022-11-27T00:40:34.239Z,2.20
2022-11-27T00:43:44.095Z,3.07
2022-11-27T00:46:46.806Z,2.43
2022-11-27T00:49:48.620Z,2.77
2022-11-27T00:52:52.658Z,2.57
2022-11-27T00:55:55.996Z,2.27
2022-11-27T00:58:58.319Z,2.40
2022-11-27T01:02:00.155Z,2.23
2022-11-27T01:05:01.924Z,1.93
2022-11-27T01:08:04.167Z,2.40
2022-11-27T01:11:06.291Z,2.50
2022-11-27T01:14:20.440Z,2.73
2022-11-27T01:17:22.087Z,1.77
2022-11-27T01:20:23.787Z,2.20
2022-11-27T01:23:26.008Z,2.37
2022-11-27T01:26:28.087Z,2.63
2022-11-27T01:29:29.876Z,2.37
2022-11-27T01:32:31.527Z,1.93
2022-11-27T01:35:33.878Z,2.40
2022-11-27T01:38:36.127Z,2.50
2022-11-27T01:41:41.538Z,2.00
2022-11-27T01:44:49.901Z,2.57
2022-11-27T01:47:58.584Z,1.97
2022-11-27T01:51:00.632Z,2.10
2022-11-27T01:54:02.422Z,2.20
2022-11-27T01:57:16.650Z,1.97
2022-11-27T02:00:19.764Z,1.53
2022-11-27T02:03:22.258Z,2.07
2022-11-27T02:06:25.319Z,1.63
2022-11-27T02:09:29.533Z,2.03
2022-11-27T02:12:44.420Z,2.17
2022-11-27T02:16:18.263Z,3.07
2022-11-27T02:19:55.339Z,1.43
2022-11-27T02:23:34.352Z,1.80
2022-11-27T02:27:03.395Z,2.13
2022-11-27T02:30:06.500Z,1.23
2022-11-27T02:33:12.647Z,2.10
2022-11-27T02:36:26.790Z,1.70
2022-11-27T02:40:06.897Z,2.10
2022-11-27T02:43:17.796Z,1.47
2022-11-27T02:46:20.641Z,1.93
2022-11-27T02:49:22.670Z,1.87
2022-11-27T02:52:28.575Z,1.93
2022-11-27T02:55:33.972Z,2.00
2022-11-27T02:58:37.558Z,1.90
2022-11-27T03:01:48.009Z,2.37
2022-11-27T03:04:56.000Z,2.40
2022-11-27T03:08:06.970Z,2.30
2022-11-27T03:11:11.769Z,1.60
2022-11-27T03:14:14.156Z,2.20
2022-11-27T03:17:37.670Z,1.67
2022-11-27T03:20:43.372Z,2.63
2022-11-27T03:23:45.057Z,1.90
2022-11-27T03:26:47.108Z,1.80
2022-11-27T03:29:56.524Z,2.50
2022-11-27T03:32:58.497Z,2.13
2022-11-27T03:36:00.189Z,2.07
2022-11-27T03:39:02.640Z,2.07
2022-11-27T03:42:25.646Z,2.20
2022-11-27T03:45:30.389Z,1.50
2022-11-27T03:48:58.350Z,2.70
2022-11-27T03:52:35.509Z,1.53
2022-11-27T03:56:09.658Z,2.50
2022-11-27T03:59:26.724Z,1.77
2022-11-27T04:02:37.577Z,2.40
2022-11-27T04:05:39.684Z,2.07
2022-11-27T04:08:42.259Z,1.87
2022-11-27T04:11:43.933Z,1.80
2022-11-27T04:14:45.690Z,1.60
2022-11-27T04:17:47.329Z,1.93
2022-11-27T04:20:48.989Z,2.20
2022-11-27T04:23:50.679Z,1.83
2022-11-27T04:26:52.324Z,2.17
2022-11-27T04:29:53.990Z,2.50
2022-11-27T04:32:55.851Z,1.80
2022-11-27T04:35:57.550Z,1.70
2022-11-27T04:38:59.212Z,2.17
2022-11-27T04:42:00.944Z,1.90
2022-11-27T04:45:03.171Z,2.07
2022-11-27T04:48:05.439Z,1.77
2022-11-27T04:51:07.144Z,1.87
2022-11-27T04:54:08.810Z,1.50
2022-11-27T04:57:10.553Z,2.20
2022-11-27T05:00:12.730Z,1.70
2022-11-27T05:03:14.493Z,1.73
2022-11-27T05:06:16.348Z,2.20
2022-11-27T05:09:18.323Z,2.40
2022-11-27T05:12:19.973Z,2.37
2022-11-27T05:15:21.612Z,1.97
2022-11-27T05:18:23.746Z,2.20
2022-11-27T05:21:25.386Z,2.47
2022-11-27T05:24:28.612Z,2.27
2022-11-27T05:27:30.270Z,1.50
2022-11-27T05:30:31.932Z,1.77
2022-11-27T05:33:33.599Z,2.13
2022-11-27T05:36:35.779Z,1.97
2022-11-27T05:39:37.427Z,1.63
2022-11-27T05:42:39.100Z,2.17
2022-11-27T05:45:40.725Z,1.83
2022-11-27T05:48:42.548Z,2.00
2022-11-27T05:51:50.754Z,2.60
2022-11-27T05:54:54.860Z,2.10
2022-11-27T05:57:56.508Z,1.93
2022-11-27T06:00:58.695Z,2.47
2022-11-27T06:04:00.948Z,2.27
2022-11-27T06:07:02.666Z,2.37
2022-11-27T06:10:04.938Z,2.07
2022-11-27T06:13:07.011Z,2.30
2022-11-27T06:16:12.435Z,2.23
2022-11-27T06:19:14.159Z,1.90
2022-11-27T06:22:15.855Z,1.70
2022-11-27T06:25:17.573Z,2.40
2022-11-27T06:28:19.239Z,2.37
2022-11-27T06:31:24.182Z,1.93
2022-11-27T06:34:25.911Z,2.70
2022-11-27T06:37:27.755Z,2.30
2022-11-27T06:40:29.384Z,3.27
2022-11-27T06:43:31.168Z,2.93
2022-11-27T06:46:32.906Z,2.30
2022-11-27T06:49:35.027Z,2.93
2022-11-27T06:52:40.426Z,2.73
2022-11-27T06:55:42.351Z,2.23
2022-11-27T06:58:44.685Z,2.33
2022-11-27T07:01:46.541Z,3.17
2022-11-27T07:04:48.235Z,1.80
2022-11-27T07:07:49.927Z,2.47
2022-11-27T07:10:51.668Z,2.00
2022-11-27T07:13:56.675Z,2.40
2022-11-27T07:16:58.413Z,2.17
2022-11-27T07:20:00.228Z,2.60
2022-11-27T07:23:01.879Z,2.30
2022-11-27T07:26:11.306Z,2.50
2022-11-27T07:29:12.964Z,2.20
2022-11-27T07:32:14.698Z,2.80
2022-11-27T07:35:16.495Z,2.23
2022-11-27T07:38:18.186Z,2.77
2022-11-27T07:41:20.200Z,2.77
2022-11-27T07:44:21.857Z,2.37
2022-11-27T07:47:23.507Z,3.00
2022-11-27T07:50:25.177Z,2.87
2022-11-27T07:53:26.982Z,4.33
2022-11-27T07:56:28.747Z,4.73
2022-11-27T07:59:30.427Z,4.57
2022-11-27T08:02:32.066Z,4.53
2022-11-27T08:05:35.523Z,5.53
2022-11-27T08:08:37.206Z,3.80
2022-11-27T08:11:39.590Z,4.93
2022-11-27T08:14:41.486Z,4.40
2022-11-27T08:17:43.497Z,17.00
2022-11-27T08:20:45.194Z,5.20
2022-11-27T08:23:46.957Z,5.07
2022-11-27T08:26:48.665Z,4.33
2022-11-27T08:29:50.306Z,6.70
2022-11-27T08:32:51.976Z,5.50
2022-11-27T08:35:54.261Z,12.00
2022-11-27T08:38:56.364Z,6.00
2022-11-27T08:41:58.026Z,3.97
2022-11-27T08:44:59.742Z,4.40
2022-11-27T08:48:01.409Z,4.57
2022-11-27T08:51:12.049Z,4.07
2022-11-27T08:54:13.838Z,4.10
2022-11-27T08:57:16.929Z,4.73
2022-11-27T09:00:22.420Z,5.00
2022-11-27T09:03:26.627Z,4.17
2022-11-27T09:06:31.154Z,4.30
2022-11-27T09:09:32.811Z,5.63
2022-11-27T09:12:36.402Z,5.40
2022-11-27T09:15:40.946Z,5.67
2022-11-27T09:18:46.546Z,6.73
2022-11-27T09:21:49.984Z,5.57
2022-11-27T09:24:51.695Z,4.80
2022-11-27T09:27:53.305Z,4.83
2022-11-27T09:30:59.909Z,5.13
2022-11-27T09:34:01.711Z,5.77
2022-11-27T09:37:04.959Z,7.17
2022-11-27T09:40:07.336Z,4.53
2022-11-27T09:43:12.027Z,4.30
2022-11-27T09:46:19.968Z,3.60
2022-11-27T09:49:57.986Z,3.23
2022-11-27T09:53:21.634Z,3.50
2022-11-27T09:56:23.498Z,3.73
2022-11-27T09:59:36.190Z,4.50
2022-11-27T10:02:37.912Z,3.60
2022-11-27T10:05:57.422Z,3.50
2022-11-27T10:09:26.172Z,3.43
2022-11-27T10:12:33.621Z,2.50
2022-11-27T10:16:20.789Z,3.10
2022-11-27T10:19:25.187Z,3.00
2022-11-27T10:22:53.382Z,3.10
2022-11-27T10:26:07.550Z,3.10
2022-11-27T10:29:25.400Z,2.83
2022-11-27T10:32:55.153Z,2.13
2022-11-27T10:35:54.296Z,3.23
2022-11-27T10:38:58.067Z,2.90
2022-11-27T10:42:26.691Z,3.60
2022-11-27T10:45:45.384Z,3.97
2022-11-27T10:48:47.255Z,5.07
2022-11-27T10:51:48.924Z,4.83
2022-11-27T10:55:01.588Z,5.03
2022-11-27T10:58:09.960Z,3.77
2022-11-27T11:01:17.721Z,3.57
2022-11-27T11:04:42.505Z,3.47
2022-11-27T11:07:55.089Z,3.50
2022-11-27T11:10:56.762Z,2.90
2022-11-27T11:13:58.819Z,3.53
2022-11-27T11:17:00.650Z,3.30
2022-11-27T11:20:22.829Z,3.27
2022-11-27T11:23:58.210Z,3.07
2022-11-27T11:27:04.719Z,3.87
2022-11-27T11:30:07.721Z,2.87
2022-11-27T11:33:13.534Z,3.27
2022-11-27T11:36:15.631Z,3.43
2022-11-27T11:39:27.549Z,2.77
2022-11-27T11:42:31.397Z,3.07
2022-11-27T11:45:34.963Z,3.53
2022-11-27T11:48:37.993Z,4.20
2022-11-27T11:52:00.655Z,2.90
2022-11-27T11:55:08.033Z,3.13
2022-11-27T11:58:11.024Z,3.43
2022-11-27T12:01:45.822Z,3.23
2022-11-27T12:05:09.720Z,3.13
2022-11-27T12:08:20.446Z,2.67
2022-11-27T12:11:44.943Z,2.97
2022-11-27T12:15:01.320Z,2.53
2022-11-27T12:18:13.328Z,1.93
2022-11-27T12:21:50.216Z,2.03
2022-11-27T12:25:17.113Z,2.20
2022-11-27T12:28:30.461Z,2.03
2022-11-27T12:31:35.165Z,2.50
2022-11-27T12:35:02.776Z,1.97
2022-11-27T12:38:31.729Z,2.33
2022-11-27T12:41:49.446Z,2.70
2022-11-27T12:45:01.116Z,2.73
2022-11-27T12:48:11.523Z,2.13
2022-11-27T12:51:43.119Z,5.17
2022-11-27T12:54:55.874Z,4.13
2022-11-27T12:58:24.396Z,3.97
2022-11-27T13:01:38.615Z,2.67
2022-11-27T13:05:23.215Z,3.27
2022-11-27T13:08:52.545Z,2.40
2022-11-27T13:11:55.340Z,2.33
2022-11-27T13:15:15.339Z,2.13
2022-11-27T13:18:39.454Z,1.97
2022-11-27T13:21:42.144Z,2.90
2022-11-27T13:24:44.046Z,3.07
2022-11-27T13:27:49.359Z,2.50
2022-11-27T13:30:53.095Z,3.07
2022-11-27T13:34:15.908Z,4.90
2022-11-27T13:37:40.875Z,5.37
2022-11-27T13:40:48.545Z,5.80
2022-11-27T13:43:51.717Z,5.97
2022-11-27T13:46:58.701Z,5.40
2022-11-27T13:50:04.100Z,6.30
2022-11-27T13:53:07.320Z,5.30
2022-11-27T13:56:09.774Z,5.97
2022-11-27T13:59:20.151Z,5.30
2022-11-27T14:02:21.972Z,5.70
2022-11-27T14:05:42.536Z,6.63
2022-11-27T14:08:54.662Z,7.40
2022-11-27T14:11:56.352Z,7.73
2022-11-27T14:15:20.239Z,10.13
2022-11-27T14:18:22.923Z,8.87
2022-11-27T14:21:35.596Z,8.57
2022-11-27T14:24:47.059Z,8.37
2022-11-27T14:28:12.034Z,8.43
2022-11-27T14:31:33.598Z,8.67
2022-11-27T14:34:35.344Z,7.50
2022-11-27T14:37:37.026Z,7.87
2022-11-27T14:40:39.176Z,7.37
2022-11-27T14:43:40.864Z,7.73
2022-11-27T14:46:42.569Z,7.53
2022-11-27T14:49:44.382Z,9.00
2022-11-27T14:52:54.478Z,8.73
2022-11-27T14:55:58.330Z,8.47
2022-11-27T14:59:00.835Z,9.60
2022-11-27T15:02:15.899Z,9.30
2022-11-27T15:05:24.312Z,9.90
2022-11-27T15:08:33.227Z,8.73
2022-11-27T15:11:54.703Z,9.00
2022-11-27T15:15:09.863Z,9.30
2022-11-27T15:18:21.456Z,9.50
2022-11-27T15:21:27.578Z,9.40
2022-11-27T15:24:35.681Z,8.80
2022-11-27T15:27:47.948Z,9.93
2022-11-27T15:30:50.055Z,8.60
2022-11-27T15:34:18.098Z,6.03
2022-11-27T15:37:32.328Z,6.33
2022-11-27T15:40:37.989Z,10.10
2022-11-27T15:43:39.610Z,11.93
2022-11-27T15:46:41.842Z,11.57
2022-11-27T15:49:43.478Z,11.60
2022-11-27T15:52:45.140Z,7.17
2022-11-27T15:55:46.871Z,4.23
2022-11-27T15:58:48.499Z,3.80
2022-11-27T16:01:50.325Z,2.60
2022-11-27T16:04:52.179Z,2.53
2022-11-27T16:07:55.547Z,2.67
2022-11-27T16:11:01.638Z,3.30
2022-11-27T16:14:03.411Z,3.10
2022-11-27T16:17:05.632Z,3.37
2022-11-27T16:20:08.383Z,3.20
2022-11-27T16:23:10.027Z,3.70
2022-11-27T16:26:13.815Z,3.20
2022-11-27T16:29:15.510Z,4.10
2022-11-27T16:32:17.301Z,3.33
2022-11-27T16:35:18.989Z,4.00
2022-11-27T16:38:23.306Z,3.90
2022-11-27T16:41:25.899Z,4.37
2022-11-27T16:44:29.200Z,3.70
2022-11-27T16:47:33.902Z,2.53
2022-11-27T16:50:36.308Z,2.70
2022-11-27T16:53:44.687Z,2.57
2022-11-27T16:56:46.660Z,4.67
2022-11-27T16:59:50.686Z,3.57
2022-11-27T17:02:53.887Z,3.33
2022-11-27T17:05:55.542Z,4.20
2022-11-27T17:08:59.508Z,3.47
2022-11-27T17:12:01.202Z,3.80
2022-11-27T17:15:03.064Z,3.60
2022-11-27T17:18:04.961Z,3.67
2022-11-27T17:21:14.112Z,2.93
2022-11-27T17:24:16.617Z,3.20
2022-11-27T17:27:21.383Z,3.60
2022-11-27T17:30:23.034Z,4.67
2022-11-27T17:33:24.707Z,4.00
2022-11-27T17:36:28.132Z,4.10
2022-11-27T17:39:31.459Z,4.60
2022-11-27T17:42:33.120Z,4.03
2022-11-27T17:45:34.848Z,3.83
2022-11-27T17:48:36.801Z,4.00
2022-11-27T17:51:38.975Z,4.60
2022-11-27T17:54:41.311Z,5.10
2022-11-27T17:57:43.846Z,5.77
2022-11-27T18:00:45.694Z,4.33
2022-11-27T18:03:48.251Z,4.27
2022-11-27T18:06:50.422Z,4.43
2022-11-27T18:09:54.179Z,4.13
2022-11-27T18:12:55.870Z,4.83
2022-11-27T18:16:07.433Z,4.50
2022-11-27T18:19:10.946Z,6.80
2022-11-27T18:22:14.355Z,5.87
2022-11-27T18:25:16.114Z,4.20
2022-11-27T18:28:17.816Z,5.13
2022-11-27T18:31:19.618Z,4.60
2022-11-27T18:34:21.270Z,4.77
2022-11-27T18:37:23.460Z,3.60
2022-11-27T18:40:25.105Z,3.77
2022-11-27T18:43:26.815Z,3.40
2022-11-27T18:46:28.969Z,3.10
2022-11-27T18:49:30.630Z,3.40
2022-11-27T18:52:32.372Z,3.97
2022-11-27T18:55:34.718Z,5.23
2022-11-27T18:58:37.776Z,5.50
2022-11-27T19:01:47.261Z,5.10
2022-11-27T19:04:50.064Z,5.90
2022-11-27T19:07:52.401Z,9.77
2022-11-27T19:10:54.114Z,6.97
2022-11-27T19:13:56.814Z,6.93
2022-11-27T19:16:59.276Z,6.47
2022-11-27T19:20:01.188Z,5.50
2022-11-27T19:23:03.571Z,5.77
2022-11-27T19:26:11.323Z,7.03
2022-11-27T19:29:15.348Z,6.50
2022-11-27T19:32:18.278Z,5.53
2022-11-27T19:35:24.414Z,4.50
2022-11-27T19:38:28.027Z,3.60
2022-11-27T19:41:30.181Z,3.70
2022-11-27T19:44:35.799Z,4.00
2022-11-27T19:47:38.359Z,3.60
2022-11-27T19:50:41.348Z,3.73
2022-11-27T19:53:43.359Z,4.23
2022-11-27T19:56:46.022Z,4.37
2022-11-27T19:59:48.521Z,3.57
2022-11-27T20:02:50.855Z,3.30
2022-11-27T20:06:05.409Z,3.70
2022-11-27T20:09:07.903Z,3.80
2022-11-27T20:12:09.903Z,4.13
2022-11-27T20:15:16.741Z,3.70
2022-11-27T20:18:19.650Z,3.83
2022-11-27T20:21:23.851Z,3.70
2022-11-27T20:24:25.960Z,4.63
2022-11-27T20:27:28.402Z,4.53
2022-11-27T20:30:30.659Z,4.73
2022-11-27T20:33:32.674Z,4.80
2022-11-27T20:36:38.764Z,5.73
2022-11-27T20:39:41.053Z,5.37
2022-11-27T20:42:42.938Z,4.80
2022-11-27T20:45:44.753Z,4.40
2022-11-27T20:48:50.263Z,5.07
2022-11-27T20:51:53.427Z,5.23
2022-11-27T20:54:57.733Z,4.43
2022-11-27T20:57:59.380Z,3.97
2022-11-27T21:01:01.186Z,3.60
2022-11-27T21:04:09.408Z,3.17
2022-11-27T21:07:11.468Z,3.67
2022-11-27T21:10:15.107Z,3.73
2022-11-27T21:13:16.929Z,3.30
2022-11-27T21:16:18.724Z,3.17
2022-11-27T21:19:25.979Z,2.90
2022-11-27T21:22:30.236Z,2.90
2022-11-27T21:25:33.455Z,2.67
2022-11-27T21:28:35.242Z,2.60
2022-11-27T21:31:37.950Z,3.10
2022-11-27T21:34:40.954Z,3.33
2022-11-27T21:37:43.875Z,2.70
2022-11-27T21:40:45.694Z,2.93
2022-11-27T21:43:48.889Z,3.97
2022-11-27T21:46:51.827Z,3.13
2022-11-27T21:49:53.601Z,2.40
2022-11-27T21:52:55.263Z,2.80
2022-11-27T21:55:57.170Z,2.77
2022-11-27T21:58:58.906Z,3.27
2022-11-27T22:02:01.017Z,2.60
2022-11-27T22:05:02.785Z,3.40
2022-11-27T22:08:04.587Z,3.00
2022-11-27T22:11:07.309Z,3.07
2022-11-27T22:14:09.559Z,2.70
2022-11-27T22:17:11.317Z,2.83
2022-11-27T22:20:13.522Z,2.40
2022-11-27T22:23:15.218Z,3.10
2022-11-27T22:26:21.411Z,2.77
2022-11-27T22:29:23.184Z,3.17
2022-11-27T22:32:24.894Z,2.97
2022-11-27T22:35:26.897Z,2.20
2022-11-27T22:38:28.547Z,2.37
2022-11-27T22:41:32.821Z,2.37
2022-11-27T22:44:34.476Z,2.47
2022-11-27T22:47:36.128Z,2.50
2022-11-27T22:50:38.260Z,3.37
2022-11-27T22:53:40.449Z,2.37
2022-11-27T22:56:42.970Z,2.80
2022-11-27T22:59:44.666Z,2.80
2022-11-27T23:02:46.440Z,2.90
2022-11-27T23:05:48.460Z,3.03
2022-11-27T23:08:51.199Z,2.23
2022-11-27T23:11:52.962Z,2.57
2022-11-27T23:14:54.595Z,2.73
2022-11-27T23:17:57.968Z,2.77
2022-11-27T23:20:59.781Z,2.57
2022-11-27T23:24:01.419Z,2.30
2022-11-27T23:27:03.099Z,3.03
2022-11-27T23:30:05.374Z,2.80
2022-11-27T23:33:07.052Z,2.17
2022-11-27T23:36:09.199Z,2.70
2022-11-27T23:39:12.824Z,2.17
2022-11-27T23:42:14.491Z,2.10
2022-11-27T23:45:16.420Z,2.30
2022-11-27T23:48:18.128Z,2.00
2022-11-27T23:51:23.435Z,2.50
2022-11-27T23:54:25.054Z,2.23
2022-11-27T23:57:26.738Z,1.90
